createdAt,value
2023-07-17T00:01:03.507Z,100.00
2023-07-17T00:04:05.906Z,100.00
2023-07-17T00:07:08.323Z,100.00
2023-07-17T00:10:11.849Z,100.00
2023-07-17T00:13:14.301Z,100.00
2023-07-17T00:16:16.669Z,100.00
2023-07-17T00:19:19.612Z,100.00
2023-07-17T00:22:22.774Z,100.00
2023-07-17T00:25:25.467Z,100.00
2023-07-17T00:28:27.721Z,100.00
2023-07-17T00:31:30.147Z,100.00
2023-07-17T00:34:32.581Z,100.00
2023-07-17T00:37:34.922Z,100.00
2023-07-17T00:40:43.003Z,100.00
2023-07-17T00:43:45.445Z,100.00
2023-07-17T00:46:48.237Z,100.00
2023-07-17T00:49:50.698Z,100.00
2023-07-17T00:52:53.066Z,100.00
2023-07-17T00:55:55.372Z,100.00
2023-07-17T00:58:58.365Z,100.00
2023-07-17T01:02:00.914Z,100.00
2023-07-17T01:05:03.450Z,100.00
2023-07-17T01:08:05.787Z,100.00
2023-07-17T01:11:08.203Z,100.00
2023-07-17T01:14:20.294Z,100.00
2023-07-17T01:17:22.573Z,100.00
2023-07-17T01:20:24.898Z,100.00
2023-07-17T01:23:27.282Z,100.00
2023-07-17T01:26:30.545Z,100.00
2023-07-17T01:29:32.961Z,100.00
2023-07-17T01:32:35.333Z,100.00
2023-07-17T01:35:37.971Z,100.00
2023-07-17T01:38:40.332Z,100.00
2023-07-17T01:41:42.719Z,100.00
2023-07-17T01:44:45.017Z,100.00
2023-07-17T01:47:47.300Z,100.00
2023-07-17T01:50:49.861Z,100.00
2023-07-17T01:53:52.229Z,100.00
2023-07-17T01:56:54.750Z,100.00
2023-07-17T01:59:57.104Z,100.00
2023-07-17T02:02:59.507Z,100.00
2023-07-17T02:06:01.914Z,100.00
2023-07-17T02:09:05.466Z,100.00
2023-07-17T02:12:08.353Z,100.00
2023-07-17T02:15:12.831Z,100.00
2023-07-17T02:18:15.224Z,100.00
2023-07-17T02:21:17.711Z,100.00
2023-07-17T02:24:20.400Z,100.00
2023-07-17T02:27:22.744Z,100.00
2023-07-17T02:30:25.029Z,100.00
2023-07-17T02:33:27.445Z,100.00
2023-07-17T02:36:30.183Z,100.00
2023-07-17T02:39:32.603Z,100.00
2023-07-17T02:42:34.913Z,100.00
2023-07-17T02:45:40.260Z,100.00
2023-07-17T02:48:42.562Z,100.00
2023-07-17T02:51:44.885Z,100.00
2023-07-17T02:54:47.197Z,100.00
2023-07-17T02:57:49.621Z,100.00
2023-07-17T03:00:51.945Z,100.00
2023-07-17T03:03:54.244Z,100.00
2023-07-17T03:06:56.523Z,100.00
2023-07-17T03:09:58.826Z,100.00
2023-07-17T03:13:01.183Z,100.00
2023-07-17T03:16:03.886Z,100.00
2023-07-17T03:19:06.304Z,100.00
2023-07-17T03:22:08.841Z,100.00
2023-07-17T03:25:11.295Z,100.00
2023-07-17T03:28:13.998Z,100.00
2023-07-17T03:31:16.655Z,100.00
2023-07-17T03:34:19.413Z,100.00
2023-07-17T03:37:21.798Z,100.00
2023-07-17T03:40:24.248Z,100.00
2023-07-17T03:43:26.542Z,100.00
2023-07-17T03:46:30.249Z,100.00
2023-07-17T03:49:32.710Z,100.00
2023-07-17T03:52:35.014Z,100.00
2023-07-17T03:55:39.718Z,100.00
2023-07-17T03:58:41.971Z,100.00
2023-07-17T04:01:44.352Z,100.00
2023-07-17T04:04:46.864Z,100.00
2023-07-17T04:07:49.151Z,100.00
2023-07-17T04:10:51.638Z,100.00
2023-07-17T04:13:53.992Z,100.00
2023-07-17T04:16:56.375Z,100.00
2023-07-17T04:19:58.820Z,100.00
2023-07-17T04:23:01.134Z,100.00
2023-07-17T04:26:03.596Z,100.00
2023-07-17T04:29:07.689Z,100.00
2023-07-17T04:32:10.276Z,100.00
2023-07-17T04:35:12.571Z,100.00
2023-07-17T04:38:14.856Z,100.00
2023-07-17T04:41:17.990Z,100.00
2023-07-17T04:44:20.565Z,100.00
2023-07-17T04:47:22.911Z,100.00
2023-07-17T04:50:27.113Z,100.00
2023-07-17T04:53:29.430Z,100.00
2023-07-17T04:56:32.201Z,100.00
2023-07-17T04:59:34.602Z,100.00
2023-07-17T05:02:36.957Z,100.00
2023-07-17T05:05:39.463Z,100.00
2023-07-17T05:08:41.839Z,100.00
2023-07-17T05:11:45.433Z,100.00
2023-07-17T05:14:47.755Z,100.00
2023-07-17T05:17:50.090Z,100.00
2023-07-17T05:20:52.807Z,100.00
2023-07-17T05:23:55.070Z,100.00
2023-07-17T05:26:57.394Z,100.00
2023-07-17T05:29:59.806Z,100.00
2023-07-17T05:33:02.752Z,100.00
2023-07-17T05:36:05.218Z,100.00
2023-07-17T05:39:07.520Z,100.00
2023-07-17T05:42:09.934Z,100.00
2023-07-17T05:45:12.306Z,100.00
2023-07-17T05:48:14.587Z,100.00
2023-07-17T05:51:17.154Z,100.00
2023-07-17T05:54:19.800Z,100.00
2023-07-17T05:57:22.107Z,100.00
2023-07-17T06:00:24.831Z,100.00
2023-07-17T06:03:27.195Z,100.00
2023-07-17T06:06:29.510Z,100.00
2023-07-17T06:09:32.144Z,100.00
2023-07-17T06:12:34.760Z,100.00
2023-07-17T06:15:37.059Z,100.00
2023-07-17T06:18:39.478Z,100.00
2023-07-17T06:21:42.498Z,100.00
2023-07-17T06:24:45.783Z,100.00
2023-07-17T06:27:48.839Z,100.00
2023-07-17T06:30:51.165Z,100.00
2023-07-17T06:33:53.432Z,100.00
2023-07-17T06:36:55.895Z,100.00
2023-07-17T06:39:58.334Z,100.00
2023-07-17T06:43:00.814Z,100.00
2023-07-17T06:46:03.333Z,100.00
2023-07-17T06:49:05.758Z,100.00
2023-07-17T06:52:08.647Z,100.00
2023-07-17T06:55:11.871Z,100.00
2023-07-17T06:58:14.264Z,100.00
2023-07-17T07:01:16.650Z,100.00
2023-07-17T07:04:19.061Z,100.00
2023-07-17T07:07:21.476Z,100.00
2023-07-17T07:10:23.824Z,100.00
2023-07-17T07:13:27.497Z,100.00
2023-07-17T07:16:29.954Z,100.00
2023-07-17T07:19:32.261Z,70.41
2023-07-17T07:22:34.646Z,67.76
2023-07-17T07:25:37.247Z,64.15
2023-07-17T07:28:39.615Z,60.59
2023-07-17T07:31:41.993Z,59.93
2023-07-17T07:34:44.343Z,57.83
2023-07-17T07:37:46.855Z,58.53
2023-07-17T07:40:50.299Z,57.56
2023-07-17T07:43:52.687Z,57.76
2023-07-17T07:46:54.955Z,60.56
2023-07-17T07:49:57.345Z,59.25
2023-07-17T07:52:59.654Z,58.60
2023-07-17T07:56:02.348Z,57.23
2023-07-17T07:59:04.691Z,56.83
2023-07-17T08:02:08.094Z,57.66
2023-07-17T08:05:11.265Z,59.73
2023-07-17T08:08:13.597Z,57.40
2023-07-17T08:11:15.952Z,57.76
2023-07-17T08:14:18.334Z,56.50
2023-07-17T08:17:20.676Z,54.60
2023-07-17T08:20:22.998Z,56.85
2023-07-17T08:23:27.140Z,56.14
2023-07-17T08:26:30.498Z,53.39
2023-07-17T08:29:34.120Z,58.69
2023-07-17T08:32:36.421Z,56.76
2023-07-17T08:35:38.886Z,54.37
2023-07-17T08:38:41.202Z,56.21
2023-07-17T08:41:47.198Z,54.82
2023-07-17T08:44:50.320Z,47.81
2023-07-17T08:47:54.303Z,48.48
2023-07-17T08:50:58.115Z,46.71
2023-07-17T08:54:13.745Z,48.33
2023-07-17T08:57:23.028Z,45.83
2023-07-17T09:00:25.619Z,46.57
2023-07-17T09:03:29.424Z,47.29
2023-07-17T09:06:33.522Z,47.07
2023-07-17T09:09:36.061Z,45.93
2023-07-17T09:12:42.153Z,45.71
2023-07-17T09:15:44.492Z,45.76
2023-07-17T09:18:47.910Z,45.35
2023-07-17T09:21:50.247Z,42.77
2023-07-17T09:24:52.960Z,45.05
2023-07-17T09:27:55.452Z,41.66
2023-07-17T09:31:02.355Z,41.92
2023-07-17T09:34:13.510Z,43.79
2023-07-17T09:37:15.818Z,44.52
2023-07-17T09:40:19.292Z,44.42
2023-07-17T09:43:32.577Z,42.36
2023-07-17T09:46:38.529Z,44.53
2023-07-17T09:49:41.127Z,42.94
2023-07-17T09:52:45.760Z,43.41
2023-07-17T09:55:49.382Z,45.54
2023-07-17T09:58:52.281Z,44.08
2023-07-17T10:01:58.782Z,45.06
2023-07-17T10:05:01.655Z,45.66
2023-07-17T10:08:09.637Z,46.59
2023-07-17T10:11:12.418Z,48.64
2023-07-17T10:14:15.681Z,47.64
2023-07-17T10:17:31.600Z,48.96
2023-07-17T10:20:33.947Z,46.34
2023-07-17T10:23:36.218Z,48.46
2023-07-17T10:26:38.638Z,45.53
2023-07-17T10:29:45.482Z,43.13
2023-07-17T10:32:47.887Z,43.72
2023-07-17T10:35:58.244Z,46.53
2023-07-17T10:39:00.605Z,45.13
2023-07-17T10:42:07.461Z,46.24
2023-07-17T10:45:13.455Z,44.52
2023-07-17T10:48:16.464Z,43.50
2023-07-17T10:51:19.085Z,44.61
2023-07-17T10:54:21.668Z,42.05
2023-07-17T10:57:24.269Z,45.67
2023-07-17T11:00:26.882Z,43.46
2023-07-17T11:03:29.553Z,42.98
2023-07-17T11:06:31.863Z,43.11
2023-07-17T11:09:34.221Z,44.09
2023-07-17T11:12:36.577Z,49.76
2023-07-17T11:15:39.300Z,48.09
2023-07-17T11:18:46.751Z,46.51
2023-07-17T11:21:49.421Z,48.08
2023-07-17T11:24:51.782Z,49.12
2023-07-17T11:27:55.341Z,47.50
2023-07-17T11:30:57.657Z,47.23
2023-07-17T11:34:01.480Z,47.99
2023-07-17T11:37:04.816Z,48.60
2023-07-17T11:40:08.990Z,47.73
2023-07-17T11:43:11.280Z,46.91
2023-07-17T11:46:14.630Z,44.32
2023-07-17T11:49:17.094Z,45.07
2023-07-17T11:52:22.452Z,43.73
2023-07-17T11:55:34.797Z,41.30
2023-07-17T11:58:41.014Z,41.34
2023-07-17T12:01:44.368Z,42.44
2023-07-17T12:04:46.762Z,40.28
2023-07-17T12:07:49.112Z,42.95
2023-07-17T12:10:51.708Z,43.13
2023-07-17T12:13:54.119Z,41.14
2023-07-17T12:16:56.494Z,39.95
2023-07-17T12:19:58.856Z,41.18
2023-07-17T12:23:01.575Z,44.48
2023-07-17T12:26:04.821Z,44.29
2023-07-17T12:29:07.187Z,42.69
2023-07-17T12:32:10.161Z,44.55
2023-07-17T12:35:12.936Z,47.03
2023-07-17T12:38:15.242Z,44.39
2023-07-17T12:41:18.786Z,43.26
2023-07-17T12:44:21.379Z,43.92
2023-07-17T12:47:23.845Z,44.58
2023-07-17T12:50:26.402Z,42.59
2023-07-17T12:53:28.718Z,41.75
2023-07-17T12:56:32.608Z,42.36
2023-07-17T12:59:35.749Z,41.83
2023-07-17T13:02:40.801Z,39.31
2023-07-17T13:05:43.377Z,39.86
2023-07-17T13:08:45.744Z,40.83
2023-07-17T13:11:48.044Z,43.57
2023-07-17T13:14:50.878Z,42.55
2023-07-17T13:17:53.226Z,41.84
2023-07-17T13:20:55.588Z,42.51
2023-07-17T13:23:59.954Z,44.19
2023-07-17T13:27:02.301Z,42.55
2023-07-17T13:30:05.105Z,44.21
2023-07-17T13:33:07.507Z,43.54
2023-07-17T13:36:09.906Z,42.84
2023-07-17T13:39:12.204Z,43.80
2023-07-17T13:42:14.505Z,45.65
2023-07-17T13:45:17.000Z,43.35
2023-07-17T13:48:19.981Z,43.78
2023-07-17T13:51:22.371Z,44.54
2023-07-17T13:54:24.731Z,44.05
2023-07-17T13:57:27.032Z,44.28
2023-07-17T14:00:29.847Z,42.77
2023-07-17T14:03:32.296Z,42.62
2023-07-17T14:06:34.916Z,43.09
2023-07-17T14:09:37.204Z,43.57
2023-07-17T14:12:39.528Z,44.17
2023-07-17T14:15:41.826Z,46.55
2023-07-17T14:18:44.212Z,58.06
2023-07-17T14:21:46.540Z,91.46
2023-07-17T14:24:48.842Z,100.00
2023-07-17T14:27:51.862Z,100.00
2023-07-17T14:30:54.459Z,100.00
2023-07-17T14:33:57.154Z,100.00
2023-07-17T14:36:59.480Z,100.00
2023-07-17T14:40:02.671Z,100.00
2023-07-17T14:43:05.177Z,100.00
2023-07-17T14:46:07.595Z,100.00
2023-07-17T14:49:09.966Z,100.00
2023-07-17T14:52:12.288Z,100.00
2023-07-17T14:55:14.727Z,100.00
2023-07-17T14:58:17.067Z,100.00
2023-07-17T15:01:19.395Z,100.00
2023-07-17T15:04:21.772Z,100.00
2023-07-17T15:07:24.113Z,100.00
2023-07-17T15:10:26.475Z,100.00
2023-07-17T15:13:29.453Z,100.00
2023-07-17T15:16:32.047Z,100.00
2023-07-17T15:19:35.505Z,100.00
2023-07-17T15:22:40.560Z,100.00
2023-07-17T15:25:42.937Z,100.00
2023-07-17T15:28:45.312Z,100.00
2023-07-17T15:31:47.660Z,100.00
2023-07-17T15:34:49.989Z,100.00
2023-07-17T15:37:52.318Z,100.00
2023-07-17T15:40:54.609Z,100.00
2023-07-17T15:43:56.874Z,100.00
2023-07-17T15:46:59.402Z,100.00
2023-07-17T15:50:01.817Z,100.00
2023-07-17T15:53:04.288Z,100.00
2023-07-17T15:56:06.685Z,100.00
2023-07-17T15:59:09.071Z,100.00
2023-07-17T16:02:11.372Z,100.00
2023-07-17T16:05:13.739Z,100.00
2023-07-17T16:08:16.941Z,100.00
2023-07-17T16:11:19.361Z,100.00
2023-07-17T16:14:21.677Z,100.00
2023-07-17T16:17:23.987Z,100.00
2023-07-17T16:20:26.300Z,100.00
2023-07-17T16:23:29.014Z,100.00
2023-07-17T16:26:31.402Z,100.00
2023-07-17T16:29:33.771Z,100.00
2023-07-17T16:32:36.328Z,100.00
2023-07-17T16:35:38.699Z,100.00
2023-07-17T16:38:41.051Z,100.00
2023-07-17T16:41:43.405Z,100.00
2023-07-17T16:44:45.760Z,100.00
2023-07-17T16:47:48.059Z,100.00
2023-07-17T16:50:50.378Z,100.00
2023-07-17T16:53:52.847Z,100.00
2023-07-17T16:56:55.111Z,100.00
2023-07-17T16:59:57.360Z,100.00
2023-07-17T17:02:59.852Z,100.00
2023-07-17T17:06:02.402Z,100.00
2023-07-17T17:09:17.455Z,100.00
2023-07-17T17:12:22.817Z,100.00
2023-07-17T17:15:25.137Z,100.00
2023-07-17T17:18:27.420Z,100.00
2023-07-17T17:21:29.904Z,100.00
2023-07-17T17:24:32.287Z,100.00
2023-07-17T17:27:34.643Z,100.00
2023-07-17T17:30:37.475Z,100.00
2023-07-17T17:33:39.997Z,100.00
2023-07-17T17:36:42.296Z,100.00
2023-07-17T17:39:45.556Z,100.00
2023-07-17T17:42:47.870Z,100.00
2023-07-17T17:45:50.339Z,100.00
2023-07-17T17:48:52.674Z,100.00
2023-07-17T17:51:54.989Z,100.00
2023-07-17T17:54:57.328Z,100.00
2023-07-17T17:58:00.025Z,100.00
2023-07-17T18:01:02.299Z,100.00
2023-07-17T18:04:04.827Z,100.00
2023-07-17T18:07:07.477Z,100.00
2023-07-17T18:10:10.260Z,100.00
2023-07-17T18:13:12.568Z,100.00
2023-07-17T18:16:14.913Z,100.00
2023-07-17T18:19:18.208Z,100.00
2023-07-17T18:22:20.500Z,100.00
2023-07-17T18:25:23.152Z,100.00
2023-07-17T18:28:25.813Z,100.00
2023-07-17T18:31:28.282Z,100.00
2023-07-17T18:34:31.889Z,100.00
2023-07-17T18:37:34.624Z,100.00
2023-07-17T18:40:37.171Z,100.00
2023-07-17T18:43:40.284Z,100.00
2023-07-17T18:46:42.811Z,100.00
2023-07-17T18:49:45.236Z,100.00
2023-07-17T18:52:48.154Z,100.00
2023-07-17T18:55:51.097Z,100.00
2023-07-17T18:58:53.392Z,100.00
2023-07-17T19:01:58.928Z,100.00
2023-07-17T19:05:01.471Z,100.00
2023-07-17T19:08:16.089Z,100.00
2023-07-17T19:11:19.826Z,100.00
2023-07-17T19:14:25.196Z,100.00
2023-07-17T19:17:27.680Z,100.00
2023-07-17T19:20:30.056Z,100.00
2023-07-17T19:23:32.638Z,100.00
2023-07-17T19:26:35.159Z,100.00
2023-07-17T19:29:37.654Z,100.00
2023-07-17T19:32:43.026Z,100.00
2023-07-17T19:35:45.707Z,100.00
2023-07-17T19:38:49.744Z,100.00
2023-07-17T19:41:52.103Z,100.00
2023-07-17T19:44:54.555Z,100.00
2023-07-17T19:47:57.264Z,100.00
2023-07-17T19:50:59.788Z,100.00
2023-07-17T19:54:02.255Z,100.00
2023-07-17T19:57:04.712Z,100.00
2023-07-17T20:00:09.815Z,100.00
2023-07-17T20:03:12.894Z,100.00
2023-07-17T20:06:15.314Z,100.00
2023-07-17T20:09:23.628Z,100.00
2023-07-17T20:12:25.971Z,100.00
2023-07-17T20:15:28.374Z,100.00
2023-07-17T20:18:30.756Z,100.00
2023-07-17T20:21:36.310Z,100.00
2023-07-17T20:24:38.848Z,100.00
2023-07-17T20:27:42.600Z,100.00
2023-07-17T20:30:45.282Z,100.00
2023-07-17T20:33:47.931Z,100.00
2023-07-17T20:36:50.855Z,100.00
2023-07-17T20:39:53.161Z,100.00
2023-07-17T20:42:55.617Z,100.00
2023-07-17T20:45:58.090Z,100.00
2023-07-17T20:49:00.659Z,100.00
2023-07-17T20:52:03.123Z,100.00
2023-07-17T20:55:07.463Z,100.00
2023-07-17T20:58:09.837Z,100.00
2023-07-17T21:01:23.836Z,100.00
2023-07-17T21:04:26.507Z,100.00
2023-07-17T21:07:28.868Z,100.00
2023-07-17T21:10:31.369Z,100.00
2023-07-17T21:13:33.862Z,100.00
2023-07-17T21:16:36.217Z,100.00
2023-07-17T21:19:38.740Z,100.00
2023-07-17T21:22:41.507Z,100.00
2023-07-17T21:25:45.278Z,100.00
2023-07-17T21:28:57.409Z,100.00
2023-07-17T21:31:59.676Z,100.00
2023-07-17T21:35:01.992Z,100.00
2023-07-17T21:38:04.378Z,100.00
2023-07-17T21:41:08.546Z,100.00
2023-07-17T21:44:10.813Z,100.00
2023-07-17T21:47:13.081Z,100.00
2023-07-17T21:50:15.463Z,100.00
2023-07-17T21:53:17.724Z,100.00
2023-07-17T21:56:19.984Z,100.00
2023-07-17T21:59:22.263Z,100.00
2023-07-17T22:02:24.533Z,100.00
2023-07-17T22:05:28.057Z,100.00
2023-07-17T22:08:30.335Z,100.00
2023-07-17T22:11:32.618Z,100.00
2023-07-17T22:14:35.269Z,100.00
2023-07-17T22:17:37.714Z,100.00
2023-07-17T22:20:39.990Z,100.00
2023-07-17T22:23:42.276Z,100.00
2023-07-17T22:26:44.573Z,100.00
2023-07-17T22:29:47.575Z,100.00
2023-07-17T22:32:49.973Z,100.00
2023-07-17T22:35:52.393Z,100.00
2023-07-17T22:38:54.698Z,100.00
2023-07-17T22:41:56.994Z,100.00
2023-07-17T22:44:59.371Z,100.00
2023-07-17T22:48:01.766Z,100.00
2023-07-17T22:51:04.170Z,100.00
2023-07-17T22:54:06.547Z,100.00
2023-07-17T22:57:08.997Z,100.00
2023-07-17T23:00:14.952Z,100.00
2023-07-17T23:03:17.236Z,100.00
2023-07-17T23:06:19.514Z,100.00
2023-07-17T23:09:21.837Z,100.00
2023-07-17T23:12:24.237Z,100.00
2023-07-17T23:15:26.599Z,100.00
2023-07-17T23:18:28.912Z,100.00
2023-07-17T23:21:51.148Z,100.00
2023-07-17T23:24:53.437Z,100.00
2023-07-17T23:27:55.719Z,100.00
2023-07-17T23:30:57.952Z,100.00
2023-07-17T23:34:00.218Z,100.00
2023-07-17T23:37:04.093Z,100.00
2023-07-17T23:40:09.970Z,100.00
2023-07-17T23:43:13.492Z,100.00
2023-07-17T23:46:15.965Z,100.00
2023-07-17T23:49:18.281Z,100.00
2023-07-17T23:52:21.336Z,100.00
2023-07-17T23:55:23.628Z,100.00
2023-07-17T23:58:25.955Z,100.00
